createdAt,value
2019-01-25T00:04:55.388Z,46.90
2019-01-25T00:09:50.098Z,49.37
2019-01-25T00:14:45.344Z,55.77
2019-01-25T00:19:39.246Z,68.90
2019-01-25T00:24:33.881Z,54.60
2019-01-25T00:29:29.517Z,55.60
2019-01-25T00:34:24.851Z,56.77
2019-01-25T00:39:19.676Z,56.80
2019-01-25T00:44:13.967Z,54.67
2019-01-25T00:49:07.916Z,54.03
2019-01-25T00:54:02.257Z,58.50
2019-01-25T00:58:56.962Z,55.63
2019-01-25T01:03:51.978Z,55.57
2019-01-25T01:08:49.459Z,59.07
2019-01-25T01:13:43.430Z,55.27
2019-01-25T01:18:37.854Z,52.20
2019-01-25T01:23:31.805Z,55.27
2019-01-25T01:28:26.191Z,55.47
2019-01-25T01:33:20.994Z,53.60
2019-01-25T01:38:17.293Z,50.90
2019-01-25T01:43:12.493Z,55.63
2019-01-25T01:48:06.818Z,54.13
2019-01-25T01:53:01.121Z,53.73
2019-01-25T01:57:56.891Z,53.97
2019-01-25T02:02:52.271Z,52.80
2019-01-25T02:07:46.572Z,56.23
2019-01-25T02:12:41.184Z,60.60
2019-01-25T02:17:35.814Z,53.53
2019-01-25T02:22:30.396Z,53.50
2019-01-25T02:27:24.691Z,55.27
2019-01-25T02:32:18.992Z,66.00
2019-01-25T02:37:13.413Z,57.83
2019-01-25T02:42:07.897Z,64.47
2019-01-25T02:47:03.344Z,59.70
2019-01-25T02:51:57.133Z,52.07
2019-01-25T02:56:51.316Z,50.80
2019-01-25T03:01:45.873Z,61.57
2019-01-25T03:06:40.638Z,51.93
2019-01-25T03:11:35.187Z,56.67
2019-01-25T03:16:30.998Z,52.57
2019-01-25T03:21:25.907Z,48.07
2019-01-25T03:26:20.412Z,55.07
2019-01-25T03:31:14.532Z,58.13
2019-01-25T03:36:09.085Z,53.73
2019-01-25T03:41:05.023Z,57.27
2019-01-25T03:45:59.418Z,60.47
2019-01-25T03:50:53.614Z,56.60
2019-01-25T03:55:49.758Z,55.80
2019-01-25T04:00:43.426Z,59.70
2019-01-25T04:05:37.909Z,59.67
2019-01-25T04:10:32.950Z,51.10
2019-01-25T04:15:32.655Z,59.80
2019-01-25T04:20:32.652Z,58.57
2019-01-25T04:25:27.620Z,59.87
2019-01-25T04:30:24.943Z,61.23
2019-01-25T04:35:19.525Z,60.17
2019-01-25T04:40:19.734Z,57.73
2019-01-25T04:45:16.302Z,57.90
2019-01-25T04:50:19.366Z,62.93
2019-01-25T04:55:17.100Z,68.97
2019-01-25T05:00:15.072Z,64.83
2019-01-25T05:05:10.324Z,61.50
2019-01-25T05:10:08.097Z,65.60
2019-01-25T05:15:02.713Z,63.73
2019-01-25T05:20:01.327Z,65.47
2019-01-25T05:25:04.871Z,63.97
2019-01-25T05:30:01.395Z,65.20
2019-01-25T05:34:56.687Z,83.87
2019-01-25T05:39:57.165Z,69.37
2019-01-25T05:44:51.738Z,67.87
2019-01-25T05:49:46.328Z,73.13
2019-01-25T05:54:40.527Z,68.53
2019-01-25T05:59:39.228Z,66.63
2019-01-25T06:04:37.301Z,73.53
2019-01-25T06:09:31.828Z,68.83
2019-01-25T06:14:27.423Z,71.37
2019-01-25T06:19:24.513Z,72.07
2019-01-25T06:24:19.387Z,70.23
2019-01-25T06:29:19.599Z,70.70
2019-01-25T06:34:16.302Z,76.60
2019-01-25T06:39:12.471Z,73.27
2019-01-25T06:44:08.935Z,67.63
2019-01-25T06:49:06.503Z,71.67
2019-01-25T06:54:02.108Z,72.50
2019-01-25T06:58:58.376Z,73.43
2019-01-25T07:03:53.900Z,69.57
2019-01-25T07:08:51.265Z,68.73
2019-01-25T07:13:45.898Z,76.43
2019-01-25T07:18:43.928Z,81.40
2019-01-25T07:23:39.749Z,74.37
2019-01-25T07:28:34.644Z,77.53
2019-01-25T07:33:30.261Z,74.30
2019-01-25T07:38:24.763Z,74.47
2019-01-25T07:43:19.553Z,76.00
2019-01-25T07:48:14.299Z,74.43
2019-01-25T07:53:10.506Z,72.87
2019-01-25T07:58:05.018Z,69.43
2019-01-25T08:03:01.009Z,73.33
2019-01-25T08:07:56.371Z,74.73
2019-01-25T08:12:51.722Z,73.73
2019-01-25T08:17:49.070Z,69.30
2019-01-25T08:22:46.517Z,75.93
2019-01-25T08:27:43.219Z,73.17
2019-01-25T08:32:37.906Z,68.27
2019-01-25T08:37:32.480Z,71.77
2019-01-25T08:42:28.301Z,69.67
2019-01-25T08:47:22.660Z,66.50
2019-01-25T08:52:18.177Z,72.90
2019-01-25T08:57:13.605Z,72.83
2019-01-25T09:02:09.688Z,68.10
2019-01-25T09:07:05.494Z,67.00
2019-01-25T09:12:00.447Z,89.03
2019-01-25T09:16:55.557Z,68.63
2019-01-25T09:21:50.303Z,71.17
2019-01-25T09:26:53.336Z,69.27
2019-01-25T09:31:47.616Z,61.40
2019-01-25T09:36:43.583Z,64.50
2019-01-25T09:41:39.596Z,58.97
2019-01-25T09:46:35.450Z,62.63
2019-01-25T09:51:29.741Z,61.53
2019-01-25T09:56:26.101Z,58.53
2019-01-25T10:01:40.248Z,54.17
2019-01-25T10:06:35.323Z,57.40
2019-01-25T10:11:32.759Z,49.57
2019-01-25T10:16:27.721Z,50.67
2019-01-25T10:21:22.667Z,57.30
2019-01-25T10:26:17.862Z,59.27
2019-01-25T10:31:13.333Z,39.57
2019-01-25T10:36:10.927Z,43.13
2019-01-25T10:41:08.747Z,47.57
2019-01-25T10:46:07.284Z,53.87
2019-01-25T10:51:01.805Z,57.80
2019-01-25T10:55:57.968Z,56.07
2019-01-25T11:00:57.255Z,55.90
2019-01-25T11:05:57.332Z,41.00
2019-01-25T11:10:52.857Z,44.90
2019-01-25T11:15:47.774Z,42.23
2019-01-25T11:20:43.448Z,45.00
2019-01-25T11:25:41.059Z,41.93
2019-01-25T11:30:38.530Z,37.90
2019-01-25T11:35:37.499Z,41.05
2019-01-25T11:40:40.099Z,42.00
2019-01-25T11:45:37.104Z,43.77
2019-01-25T11:50:34.454Z,54.03
2019-01-25T11:55:30.176Z,37.93
2019-01-25T12:00:32.013Z,40.03
2019-01-25T12:05:27.683Z,35.63
2019-01-25T12:10:25.808Z,37.13
2019-01-25T12:15:20.056Z,32.83
2019-01-25T12:20:20.455Z,32.50
2019-01-25T12:25:14.828Z,31.77
2019-01-25T12:30:27.504Z,40.50
2019-01-25T12:35:22.700Z,37.30
2019-01-25T12:40:19.597Z,38.83
2019-01-25T12:45:19.687Z,40.50
2019-01-25T12:50:18.514Z,52.83
2019-01-25T12:55:16.255Z,45.37
2019-01-25T13:00:14.143Z,43.83
2019-01-25T13:05:13.631Z,50.87
2019-01-25T13:10:12.355Z,45.60
2019-01-25T13:15:08.173Z,47.40
2019-01-25T13:20:04.733Z,49.07
2019-01-25T13:25:00.974Z,46.90
2019-01-25T13:29:55.177Z,49.17
2019-01-25T13:34:50.649Z,46.37
2019-01-25T13:39:45.110Z,50.07
2019-01-25T13:44:40.739Z,48.80
2019-01-25T13:49:34.483Z,56.40
2019-01-25T13:54:29.740Z,51.00
2019-01-25T13:59:24.946Z,54.37
2019-01-25T14:04:22.416Z,53.40
2019-01-25T14:09:17.651Z,51.00
2019-01-25T14:14:12.009Z,50.37
2019-01-25T14:19:08.631Z,51.17
2019-01-25T14:24:06.461Z,56.30
2019-01-25T14:29:01.012Z,56.07
2019-01-25T14:33:56.143Z,91.53
2019-01-25T14:38:50.729Z,182.80
2019-01-25T14:43:46.106Z,56.60
2019-01-25T14:48:41.249Z,54.93
2019-01-25T14:53:36.994Z,57.53
2019-01-25T14:58:32.851Z,57.17
2019-01-25T15:03:29.498Z,59.10
2019-01-25T15:08:29.721Z,62.50
2019-01-25T15:13:26.113Z,67.77
2019-01-25T15:18:23.859Z,62.20
2019-01-25T15:23:19.865Z,66.00
2019-01-25T15:28:17.468Z,65.97
2019-01-25T15:33:12.605Z,70.77
2019-01-25T15:38:07.603Z,75.33
2019-01-25T15:43:05.897Z,70.80
2019-01-25T15:48:00.561Z,71.33
2019-01-25T15:52:55.444Z,73.97
2019-01-25T15:57:51.308Z,83.27
2019-01-25T16:02:47.697Z,81.70
2019-01-25T16:07:43.663Z,85.80
2019-01-25T16:12:38.880Z,75.53
2019-01-25T16:17:33.790Z,76.17
2019-01-25T16:22:27.976Z,74.60
2019-01-25T16:27:22.842Z,75.47
2019-01-25T16:32:19.758Z,73.20
2019-01-25T16:37:14.490Z,78.87
2019-01-25T16:42:09.889Z,70.93
2019-01-25T16:47:05.919Z,70.93
2019-01-25T16:52:00.124Z,72.97
2019-01-25T16:56:56.260Z,74.27
2019-01-25T17:01:50.366Z,74.07
2019-01-25T17:06:45.434Z,69.67
2019-01-25T17:11:42.816Z,74.43
2019-01-25T17:16:38.592Z,77.97
2019-01-25T17:21:35.087Z,73.23
2019-01-25T17:26:31.627Z,70.80
2019-01-25T17:31:26.041Z,83.10
2019-01-25T17:36:21.996Z,81.67
2019-01-25T17:41:17.706Z,79.73
2019-01-25T17:46:13.191Z,85.73
2019-01-25T17:51:10.002Z,77.80
2019-01-25T17:56:06.083Z,71.40
2019-01-25T18:01:05.344Z,66.83
2019-01-25T18:06:02.570Z,57.77
2019-01-25T18:10:57.898Z,52.20
2019-01-25T18:15:53.290Z,45.13
2019-01-25T18:20:48.667Z,50.10
2019-01-25T18:25:45.454Z,49.13
2019-01-25T18:30:46.907Z,39.83
2019-01-25T18:35:41.906Z,40.97
2019-01-25T18:40:36.307Z,35.00
2019-01-25T18:45:31.819Z,33.13
2019-01-25T18:50:26.002Z,32.80
2019-01-25T18:55:23.033Z,35.73
2019-01-25T19:00:22.480Z,36.73
2019-01-25T19:05:20.618Z,36.73
2019-01-25T19:10:27.182Z,33.77
2019-01-25T19:15:29.486Z,39.03
2019-01-25T19:20:30.647Z,41.80
2019-01-25T19:25:24.713Z,38.87
2019-01-25T19:30:26.363Z,37.97
2019-01-25T19:35:27.934Z,40.63
2019-01-25T19:40:26.715Z,43.47
2019-01-25T19:45:32.105Z,40.77
2019-01-25T19:50:23.956Z,44.07
2019-01-25T19:55:23.991Z,34.30
2019-01-25T20:00:38.262Z,41.70
2019-01-25T20:05:37.947Z,43.83
2019-01-25T20:10:38.131Z,41.60
2019-01-25T20:20:50.230Z,38.53
2019-01-25T20:25:43.315Z,37.83
2019-01-25T20:30:49.759Z,38.10
2019-01-25T20:35:42.106Z,37.33
2019-01-25T20:40:40.086Z,42.70
2019-01-25T20:45:45.132Z,35.20
2019-01-25T20:50:36.321Z,37.00
2019-01-25T20:55:34.767Z,43.93
2019-01-25T21:00:38.492Z,36.73
2019-01-25T21:05:37.131Z,37.43
2019-01-25T21:10:34.662Z,40.33
2019-01-25T21:15:36.887Z,38.40
2019-01-25T21:20:38.285Z,43.17
2019-01-25T21:25:35.438Z,38.80
2019-01-25T21:30:39.268Z,36.50
2019-01-25T21:35:42.999Z,36.00
2019-01-25T21:40:41.954Z,35.23
2019-01-25T21:45:43.304Z,40.87
2019-01-25T21:50:44.739Z,38.30
2019-01-25T21:55:46.298Z,35.27
2019-01-25T22:00:43.410Z,37.70
2019-01-25T22:05:42.831Z,36.43
2019-01-25T22:10:40.245Z,40.30
2019-01-25T22:15:40.091Z,39.50
2019-01-25T22:20:35.380Z,35.77
2019-01-25T22:25:29.498Z,36.70
2019-01-25T22:30:29.070Z,36.50
2019-01-25T22:35:25.181Z,38.60
2019-01-25T22:40:25.207Z,40.17
2019-01-25T22:45:24.547Z,41.73
2019-01-25T22:50:24.010Z,35.70
2019-01-25T22:55:19.776Z,51.67
2019-01-25T23:00:36.709Z,68.63
2019-01-25T23:05:39.895Z,40.53
2019-01-25T23:10:34.523Z,37.80
2019-01-25T23:15:29.132Z,40.10
2019-01-25T23:20:27.567Z,37.10
2019-01-25T23:25:22.032Z,41.40
2019-01-25T23:30:17.207Z,49.33
2019-01-25T23:35:14.224Z,42.90
2019-01-25T23:40:11.381Z,42.27
2019-01-25T23:45:08.270Z,40.03
2019-01-25T23:50:03.035Z,41.50
2019-01-25T23:54:58.766Z,36.57
2019-01-25T23:59:53.390Z,38.13
